createdAt,value
2023-02-21T00:03:17.966Z,1507
2023-02-21T00:06:59.029Z,1518
2023-02-21T00:10:39.557Z,1481
2023-02-21T00:14:22.676Z,1487
2023-02-21T00:18:02.946Z,1460
2023-02-21T00:21:43.306Z,1482
2023-02-21T00:25:23.947Z,1463
2023-02-21T00:29:04.708Z,1463
2023-02-21T00:32:46.393Z,1499
2023-02-21T00:36:26.541Z,1520
2023-02-21T00:40:07.182Z,1518
2023-02-21T00:43:48.075Z,1512
2023-02-21T00:47:28.679Z,1521
2023-02-21T00:51:08.839Z,1497
2023-02-21T00:54:50.719Z,1042
2023-02-21T00:58:31.303Z,1057
2023-02-21T01:03:17.542Z,1036
2023-02-21T01:06:57.820Z,1033
2023-02-21T01:10:37.773Z,1030
2023-02-21T01:14:18.576Z,1032
2023-02-21T01:18:13.019Z,1039
2023-02-21T01:21:53.585Z,1044
2023-02-21T01:25:33.708Z,1040
2023-02-21T01:29:14.315Z,1039
2023-02-21T01:32:56.439Z,1078
2023-02-21T01:36:39.030Z,1062
2023-02-21T01:40:18.904Z,1035
2023-02-21T01:43:59.271Z,1051
2023-02-21T01:47:39.800Z,1016
2023-02-21T01:51:20.843Z,1072
2023-02-21T01:55:00.989Z,166
2023-02-21T01:58:42.142Z,128
2023-02-21T02:03:17.982Z,126
2023-02-21T02:07:01.577Z,128
2023-02-21T02:10:42.085Z,127
2023-02-21T02:14:22.269Z,127
2023-02-21T02:18:05.322Z,127
2023-02-21T02:21:46.552Z,128
2023-02-21T02:25:27.227Z,128
2023-02-21T02:29:07.515Z,127
2023-02-21T02:32:49.884Z,108
2023-02-21T02:36:30.030Z,109
2023-02-21T02:40:10.716Z,108
2023-02-21T02:43:51.548Z,108
2023-02-21T02:47:31.744Z,108
2023-02-21T02:51:11.685Z,108
2023-02-21T02:54:51.850Z,109
2023-02-21T02:58:32.277Z,109
2023-02-21T03:03:17.795Z,108
2023-02-21T03:06:58.170Z,107
2023-02-21T03:10:41.480Z,108
2023-02-21T03:14:22.098Z,108
2023-02-21T03:18:03.216Z,107
2023-02-21T03:21:44.091Z,127
2023-02-21T03:25:24.326Z,128
2023-02-21T03:29:04.578Z,128
2023-02-21T03:32:45.989Z,129
2023-02-21T03:36:26.577Z,127
2023-02-21T03:40:06.711Z,126
2023-02-21T03:43:47.007Z,127
2023-02-21T03:47:29.846Z,126
2023-02-21T03:51:26.239Z,125
2023-02-21T03:55:06.699Z,127
2023-02-21T03:58:49.509Z,110
2023-02-21T04:03:18.178Z,109
2023-02-21T04:06:58.706Z,109
2023-02-21T04:10:52.069Z,108
2023-02-21T04:14:32.410Z,107
2023-02-21T04:18:12.995Z,107
2023-02-21T04:21:53.677Z,107
2023-02-21T04:25:47.311Z,108
2023-02-21T04:29:27.714Z,108
2023-02-21T04:33:09.731Z,107
2023-02-21T04:37:06.588Z,118
2023-02-21T04:40:47.155Z,107
2023-02-21T04:44:27.755Z,128
2023-02-21T04:48:08.171Z,129
2023-02-21T04:52:04.702Z,129
2023-02-21T04:55:47.638Z,127
2023-02-21T04:59:40.549Z,127
2023-02-21T05:03:18.422Z,128
2023-02-21T05:08:46.866Z,129
2023-02-21T05:12:43.274Z,127
2023-02-21T05:16:24.380Z,126
2023-02-21T05:20:05.660Z,123
2023-02-21T05:24:02.204Z,108
2023-02-21T05:27:42.676Z,109
2023-02-21T05:31:25.040Z,109
2023-02-21T05:35:06.207Z,110
2023-02-21T05:38:46.963Z,108
2023-02-21T05:42:27.797Z,108
2023-02-21T05:46:10.969Z,108
2023-02-21T05:49:51.573Z,108
2023-02-21T05:53:32.120Z,107
2023-02-21T05:57:12.714Z,108
2023-02-21T06:03:19.403Z,107
2023-02-21T06:07:00.459Z,130
2023-02-21T06:10:41.182Z,127
2023-02-21T06:14:22.486Z,138
2023-02-21T06:18:03.289Z,139
2023-02-21T06:21:44.266Z,129
2023-02-21T06:25:24.720Z,129
2023-02-21T06:29:05.543Z,127
2023-02-21T06:32:47.752Z,125
2023-02-21T06:36:28.404Z,125
2023-02-21T06:40:08.993Z,131
2023-02-21T06:43:49.405Z,125
2023-02-21T06:47:30.276Z,106
2023-02-21T06:51:10.843Z,106
2023-02-21T06:54:51.215Z,106
2023-02-21T06:58:31.636Z,105
2023-02-21T07:03:18.345Z,101
2023-02-21T07:07:01.700Z,1714
2023-02-21T07:10:42.064Z,124
2023-02-21T07:14:22.837Z,124
2023-02-21T07:18:04.382Z,123
2023-02-21T07:21:45.766Z,124
2023-02-21T07:25:26.503Z,160
2023-02-21T07:29:07.558Z,167
2023-02-21T07:32:51.579Z,167
2023-02-21T07:36:32.026Z,192
2023-02-21T07:40:13.443Z,179
2023-02-21T07:43:54.366Z,156
2023-02-21T07:47:35.348Z,206
2023-02-21T07:51:16.169Z,120
2023-02-21T07:54:57.330Z,135
2023-02-21T07:58:38.323Z,120
2023-02-21T08:03:19.044Z,128
2023-02-21T08:06:59.992Z,119
2023-02-21T08:10:40.797Z,99
2023-02-21T08:14:22.252Z,99
2023-02-21T08:18:03.717Z,119
2023-02-21T08:21:45.803Z,99
2023-02-21T08:25:26.505Z,100
2023-02-21T08:29:07.069Z,100
2023-02-21T08:32:48.753Z,109
2023-02-21T08:36:31.988Z,101
2023-02-21T08:40:12.746Z,100
2023-02-21T08:43:54.056Z,100
2023-02-21T08:47:38.581Z,121
2023-02-21T08:51:20.147Z,99
2023-02-21T08:55:01.778Z,100
2023-02-21T08:58:43.850Z,119
2023-02-21T09:03:19.103Z,130
2023-02-21T09:07:02.544Z,121
2023-02-21T09:10:44.594Z,120
2023-02-21T09:14:25.160Z,119
2023-02-21T09:18:06.062Z,138
2023-02-21T09:21:47.081Z,119
2023-02-21T09:25:27.687Z,118
2023-02-21T09:29:08.528Z,119
2023-02-21T09:32:54.811Z,128
2023-02-21T09:36:35.901Z,101
2023-02-21T09:40:16.967Z,100
2023-02-21T09:43:58.577Z,100
2023-02-21T09:47:42.610Z,120
2023-02-21T09:51:23.525Z,100
2023-02-21T09:55:03.822Z,101
2023-02-21T09:58:44.452Z,100
2023-02-21T10:03:18.023Z,110
2023-02-21T10:07:00.390Z,100
2023-02-21T10:10:41.158Z,110
2023-02-21T10:14:22.360Z,130
2023-02-21T10:18:03.167Z,121
2023-02-21T10:21:43.756Z,130
2023-02-21T10:25:25.570Z,119
2023-02-21T10:29:08.520Z,121
2023-02-21T10:32:51.735Z,134
2023-02-21T10:36:33.670Z,136
2023-02-21T10:40:15.019Z,134
2023-02-21T10:43:56.081Z,144
2023-02-21T10:47:39.089Z,1891
2023-02-21T10:51:20.449Z,138
2023-02-21T10:55:01.244Z,105
2023-02-21T10:58:41.927Z,101
2023-02-21T11:03:22.353Z,109
2023-02-21T11:07:05.569Z,101
2023-02-21T11:10:46.561Z,102
2023-02-21T11:14:28.118Z,102
2023-02-21T11:18:09.156Z,130
2023-02-21T11:21:50.083Z,109
2023-02-21T11:25:30.688Z,106
2023-02-21T11:29:11.066Z,104
2023-02-21T11:32:54.466Z,139
2023-02-21T11:36:36.757Z,195
2023-02-21T11:40:20.143Z,223
2023-02-21T11:44:00.990Z,249
2023-02-21T11:47:41.921Z,278
2023-02-21T11:51:27.596Z,224
2023-02-21T11:55:08.236Z,227
2023-02-21T11:58:48.662Z,207
2023-02-21T12:03:18.478Z,143
2023-02-21T12:07:01.525Z,101
2023-02-21T12:10:42.186Z,130
2023-02-21T12:14:22.973Z,141
2023-02-21T12:18:03.944Z,122
2023-02-21T12:21:44.488Z,101
2023-02-21T12:25:27.032Z,102
2023-02-21T12:29:08.322Z,101
2023-02-21T12:32:51.109Z,109
2023-02-21T12:36:32.658Z,100
2023-02-21T12:40:14.552Z,99
2023-02-21T12:43:55.224Z,100
2023-02-21T12:47:38.953Z,119
2023-02-21T12:51:22.719Z,122
2023-02-21T12:55:03.461Z,119
2023-02-21T12:58:46.305Z,120
2023-02-21T13:03:20.611Z,128
2023-02-21T13:07:03.491Z,118
2023-02-21T13:10:44.330Z,119
2023-02-21T13:14:26.709Z,119
2023-02-21T13:18:10.936Z,120
2023-02-21T13:21:51.999Z,100
2023-02-21T13:25:32.803Z,100
2023-02-21T13:29:13.641Z,101
2023-02-21T13:32:56.718Z,110
2023-02-21T13:36:37.741Z,99
2023-02-21T13:40:19.422Z,99
2023-02-21T13:44:00.925Z,99
2023-02-21T13:47:41.761Z,120
2023-02-21T13:51:26.117Z,100
2023-02-21T13:55:06.931Z,101
2023-02-21T13:58:48.284Z,101
2023-02-21T14:03:21.327Z,110
2023-02-21T14:07:02.309Z,120
2023-02-21T14:10:42.952Z,120
2023-02-21T14:14:26.631Z,120
2023-02-21T14:18:09.794Z,142
2023-02-21T14:21:54.910Z,129
2023-02-21T14:25:35.644Z,120
2023-02-21T14:29:19.024Z,120
2023-02-21T14:33:01.450Z,129
2023-02-21T14:36:42.097Z,119
2023-02-21T14:40:25.157Z,236
2023-02-21T14:44:07.630Z,236
2023-02-21T14:47:48.826Z,257
2023-02-21T14:51:29.258Z,216
2023-02-21T14:55:09.920Z,213
2023-02-21T14:58:50.928Z,280
2023-02-21T15:03:18.958Z,271
2023-02-21T15:07:03.407Z,172
2023-02-21T15:10:43.891Z,230
2023-02-21T15:14:26.768Z,225
2023-02-21T15:18:09.406Z,251
2023-02-21T15:21:50.049Z,240
2023-02-21T15:25:31.730Z,215
2023-02-21T15:29:12.496Z,225
2023-02-21T15:32:55.772Z,233
2023-02-21T15:36:39.303Z,1900
2023-02-21T15:40:26.166Z,243
2023-02-21T15:44:07.024Z,276
2023-02-21T15:47:49.129Z,285
2023-02-21T15:51:30.303Z,250
2023-02-21T15:55:10.926Z,230
2023-02-21T15:58:55.028Z,236
2023-02-21T16:03:21.540Z,249
2023-02-21T16:07:02.053Z,234
2023-02-21T16:10:43.971Z,235
2023-02-21T16:14:24.613Z,200
2023-02-21T16:18:05.880Z,192
2023-02-21T16:21:47.017Z,136
2023-02-21T16:25:58.031Z,135
2023-02-21T16:29:39.921Z,128
2023-02-21T16:33:22.581Z,137
2023-02-21T16:37:03.684Z,198
2023-02-21T16:40:44.336Z,170
2023-02-21T16:44:25.545Z,101
2023-02-21T16:48:10.722Z,121
2023-02-21T16:51:51.430Z,101
2023-02-21T16:55:34.720Z,121
2023-02-21T16:59:15.456Z,136
2023-02-21T17:03:19.728Z,146
2023-02-21T17:08:47.213Z,149
2023-02-21T17:12:31.820Z,149
2023-02-21T17:16:13.209Z,146
2023-02-21T17:19:57.332Z,146
2023-02-21T17:23:39.997Z,148
2023-02-21T17:27:20.894Z,145
2023-02-21T17:31:02.231Z,148
2023-02-21T17:34:43.632Z,128
2023-02-21T17:38:24.267Z,118
2023-02-21T17:42:05.510Z,145
2023-02-21T17:45:46.866Z,127
2023-02-21T17:49:27.728Z,138
2023-02-21T17:53:09.279Z,119
2023-02-21T17:56:51.089Z,119
2023-02-21T18:03:18.631Z,128
2023-02-21T18:06:59.714Z,117
2023-02-21T18:10:40.298Z,117
2023-02-21T18:14:21.352Z,117
2023-02-21T18:18:03.352Z,169
2023-02-21T18:21:44.268Z,136
2023-02-21T18:25:26.790Z,140
2023-02-21T18:29:07.643Z,125
2023-02-21T18:32:52.548Z,133
2023-02-21T18:36:35.371Z,124
2023-02-21T18:40:16.470Z,123
2023-02-21T18:43:57.956Z,123
2023-02-21T18:47:39.379Z,145
2023-02-21T18:51:20.702Z,128
2023-02-21T18:55:01.452Z,133
2023-02-21T18:58:44.409Z,170
2023-02-21T19:03:19.810Z,115
2023-02-21T19:07:01.136Z,104
2023-02-21T19:10:42.881Z,104
2023-02-21T19:14:24.301Z,103
2023-02-21T19:18:07.953Z,124
2023-02-21T19:21:49.089Z,104
2023-02-21T19:25:29.943Z,105
2023-02-21T19:29:11.241Z,106
2023-02-21T19:32:54.280Z,114
2023-02-21T19:36:36.381Z,117
2023-02-21T19:40:19.151Z,118
2023-02-21T19:44:01.482Z,122
2023-02-21T19:47:42.996Z,144
2023-02-21T19:51:24.261Z,124
2023-02-21T19:55:04.882Z,124
2023-02-21T19:58:45.674Z,124
2023-02-21T20:03:19.511Z,124
2023-02-21T20:07:02.500Z,124
2023-02-21T20:10:43.120Z,124
2023-02-21T20:14:24.363Z,124
2023-02-21T20:18:05.771Z,123
2023-02-21T20:21:47.452Z,105
2023-02-21T20:25:28.325Z,104
2023-02-21T20:29:09.417Z,105
2023-02-21T20:32:52.746Z,147
2023-02-21T20:36:33.704Z,141
2023-02-21T20:40:16.495Z,106
2023-02-21T20:43:58.338Z,105
2023-02-21T20:47:40.277Z,104
2023-02-21T20:51:21.459Z,104
2023-02-21T20:55:01.978Z,104
2023-02-21T20:58:43.113Z,105
2023-02-21T21:03:20.731Z,108
2023-02-21T21:07:01.840Z,139
2023-02-21T21:10:42.547Z,128
2023-02-21T21:14:27.366Z,128
2023-02-21T21:18:08.413Z,127
2023-02-21T21:21:49.878Z,128
2023-02-21T21:25:30.661Z,127
2023-02-21T21:29:12.081Z,127
2023-02-21T21:32:54.309Z,127
2023-02-21T21:36:34.936Z,126
2023-02-21T21:40:18.728Z,127
2023-02-21T21:43:59.802Z,127
2023-02-21T21:47:40.980Z,109
2023-02-21T21:51:22.481Z,109
2023-02-21T21:55:03.127Z,108
2023-02-21T21:58:44.470Z,179
2023-02-21T22:03:19.679Z,108
2023-02-21T22:07:00.721Z,108
2023-02-21T22:10:41.533Z,108
2023-02-21T22:14:23.170Z,108
2023-02-21T22:18:04.167Z,107
2023-02-21T22:21:44.958Z,109
2023-02-21T22:25:26.090Z,109
2023-02-21T22:29:07.025Z,108
2023-02-21T22:32:48.700Z,125
2023-02-21T22:36:29.451Z,127
2023-02-21T22:40:10.087Z,128
2023-02-21T22:43:52.221Z,128
2023-02-21T22:47:33.391Z,128
2023-02-21T22:51:17.687Z,129
2023-02-21T22:54:58.753Z,128
2023-02-21T22:58:41.961Z,128
2023-02-21T23:03:19.537Z,127
2023-02-21T23:07:00.217Z,126
2023-02-21T23:10:41.299Z,108
2023-02-21T23:14:22.536Z,108
2023-02-21T23:18:03.470Z,109
2023-02-21T23:21:44.261Z,171
2023-02-21T23:25:24.645Z,172
2023-02-21T23:29:05.539Z,122
2023-02-21T23:32:47.893Z,121
2023-02-21T23:36:28.790Z,109
2023-02-21T23:40:09.834Z,108
2023-02-21T23:43:50.265Z,108
2023-02-21T23:47:31.102Z,108
2023-02-21T23:51:11.878Z,108
2023-02-21T23:54:52.771Z,110
2023-02-21T23:58:33.441Z,127
